F/V Pasiphae 2 — FMFN — position and weather

sailwx.info

Track history (hours):
 
Tides and Currents Weather Stations Pressure Air Temp Water Temp Dewpoint Dewpoint Depression Visibility Wind Speed Wind Dir Waves Ship Positions

F/V Pasiphae 2

Last reported at 2017-Aug-18 10:29 UTC. Time now 2017-Aug-18 10:38 UTC.
Position N 47°25' W 003°46'.

Length 14 m.

Type: Fishing. MMSI: 228224800.

Date/timePositionNaut miles runAvg speedWind from/ knotsBaromVisibWave heightAir tempDewpointWater temp
2017-Aug-18 10:29N 47°25' W 003°46'2 3.2
2017-Aug-18 09:53N 47°25' W 003°43'1 3.7
2017-Aug-18 09:30N 47°26' W 003°45'2 3.7
2017-Aug-18 08:58N 47°25' W 003°48'2 3.1
2017-Aug-18 08:26N 47°25' W 003°45'2 3.8
2017-Aug-18 07:59N 47°26' W 003°43'3 3.1
2017-Aug-18 06:57N 47°29' W 003°41'1 3.4
2017-Aug-18 06:30N 47°31' W 003°41'2 3.2
2017-Aug-18 06:00N 47°29' W 003°41'2 3.7
2017-Aug-18 05:30N 47°28' W 003°39'2 3.6
2017-Aug-18 05:00N 47°28' W 003°36'2 4.0
2017-Aug-18 04:30N 47°30' W 003°35'2 3.1
2017-Aug-18 04:00N 47°31' W 003°37'2 3.8
2017-Aug-18 03:30N 47°31' W 003°40'2 3.1
2017-Aug-18 03:00N 47°30' W 003°41'2 3.7
2017-Aug-18 02:30N 47°28' W 003°39'2 3.9
2017-Aug-18 02:00N 47°28' W 003°36'2 3.9
2017-Aug-18 01:30N 47°29' W 003°33'4 7.7
2017-Aug-18 01:00N 47°32' W 003°29'4 8.8
2017-Aug-18 00:30N 47°35' W 003°24'4 8.5
2017-Aug-18 00:00N 47°39' W 003°22'4 8.8
2017-Aug-17 23:30N 47°43' W 003°22'1 1.2
2017-Aug-17 23:00N 47°44' W 003°22'0 0.3
2017-Aug-17 22:30N 47°44' W 003°22'0 0.0
2017-Aug-17 22:00N 47°44' W 003°22'4 7.1
2017-Aug-17 21:30N 47°40' W 003°22'5 9.4
2017-Aug-17 21:00N 47°35' W 003°23'5 9.2
2017-Aug-17 20:30N 47°31' W 003°25'4 8.9
2017-Aug-17 20:00N 47°27' W 003°27'10 0.8
2017-Aug-17 07:11N 47°17' W 003°26'0 2.8
2017-Aug-17 07:01N 47°17' W 003°27'1 2.3
2017-Aug-17 06:30N 47°16' W 003°25'1 3.0
2017-Aug-17 06:00N 47°17' W 003°26'1 2.6
2017-Aug-17 05:26N 47°16' W 003°25'4 2.9
2017-Aug-17 04:13N 47°18' W 003°30'1 3.8
2017-Aug-17 04:00N 47°17' W 003°30'2 3.5
2017-Aug-17 03:29N 47°16' W 003°28'1 2.8
2017-Aug-17 02:58N 47°15' W 003°27'2 3.3
2017-Aug-17 02:18N 47°17' W 003°25'1 2.5
2017-Aug-17 01:59N 47°17' W 003°26'2 3.8
2017-Aug-17 01:23N 47°17' W 003°30'2 4.0
2017-Aug-17 00:57N 47°16' W 003°32'11 0.6
2017-Aug-16 06:12N 47°26' W 003°40'1 2.8
2017-Aug-16 06:00N 47°26' W 003°39'2 3.8
2017-Aug-16 05:30N 47°28' W 003°37'2 3.8
2017-Aug-16 05:00N 47°29' W 003°36'2 4.0
2017-Aug-16 04:30N 47°31' W 003°35'2 3.6
2017-Aug-16 04:00N 47°32' W 003°38'2 3.8
2017-Aug-16 03:30N 47°31' W 003°41'2 3.3
2017-Aug-16 03:00N 47°29' W 003°40'2 4.0
2017-Aug-16 02:30N 47°29' W 003°37'2 3.9
2017-Aug-16 02:00N 47°29' W 003°34'3 6.3
2017-Aug-16 01:30N 47°31' W 003°31'5 9.2
2017-Aug-16 01:00N 47°34' W 003°25'4 8.8
2017-Aug-16 00:30N 47°38' W 003°23'5 9.2
2017-Aug-16 00:00N 47°42' W 003°22'1 3.0
2017-Aug-15 23:30N 47°44' W 003°22'2 4.0
2017-Aug-15 23:00N 47°42' W 003°22'4 8.5
2017-Aug-15 22:30N 47°38' W 003°23'4 7.4
2017-Aug-15 22:00N 47°34' W 003°25'4 7.8
2017-Aug-15 21:30N 47°32' W 003°29'4 7.4
2017-Aug-15 21:00N 47°29' W 003°34'2 3.1
2017-Aug-15 20:30N 47°29' W 003°36'2 3.9
2017-Aug-15 20:00N 47°27' W 003°38'2 3.8
2017-Aug-15 19:30N 47°26' W 003°40'2 3.5
2017-Aug-15 19:00N 47°25' W 003°41'2 3.9
2017-Aug-15 18:30N 47°25' W 003°44'2 4.0
2017-Aug-15 18:00N 47°25' W 003°47'2 4.1
2017-Aug-15 17:30N 47°25' W 003°50'2 4.2
2017-Aug-15 17:00N 47°24' W 003°53'2 3.5
2017-Aug-15 16:29N 47°23' W 003°55'1 3.1
2017-Aug-15 16:00N 47°22' W 003°54'2 3.9
2017-Aug-15 15:30N 47°22' W 003°52'2 4.0
2017-Aug-15 15:00N 47°22' W 003°49'1 2.2
2017-Aug-15 14:30N 47°21' W 003°49'2 2.4
2017-Aug-15 13:46N 47°22' W 003°51'1 3.9
2017-Aug-15 13:29N 47°22' W 003°49'27 3.2
2017-Aug-15 05:06N 47°14' W 003°11'1 4.1
2017-Aug-15 04:54N 47°14' W 003°12'2 5.1
2017-Aug-15 04:29N 47°14' W 003°15'6 8.9
2017-Aug-15 03:49N 47°17' W 003°23'23 1.7
2017-Aug-14 14:43N 47°25' W 003°55'0 1.9
2017-Aug-14 14:30N 47°25' W 003°54'2 3.7
2017-Aug-14 14:00N 47°24' W 003°52'2 3.8
2017-Aug-14 13:30N 47°24' W 003°55'2 3.1
2017-Aug-14 12:45N 47°26' W 003°55'3 3.3
2017-Aug-14 11:47N 47°25' W 003°51'1 4.0
2017-Aug-14 11:30N 47°24' W 003°52'2 5.0
2017-Aug-14 11:00N 47°22' W 003°53'4 2.9
2017-Aug-14 09:33N 47°26' W 003°55'0 4.3
2017-Aug-14 09:30N 47°26' W 003°55'2 3.8
2017-Aug-14 09:00N 47°24' W 003°54'3 2.6
2017-Aug-14 07:40N 47°21' W 003°52'3 2.4
2017-Aug-14 06:38N 47°22' W 003°48'0 4.0
2017-Aug-14 06:30N 47°22' W 003°49'2 3.2
2017-Aug-14 05:49N 47°24' W 003°51'1 3.8
2017-Aug-14 05:27N 47°25' W 003°50'2 3.8
2017-Aug-14 04:56N 47°26' W 003°47'2 3.9
2017-Aug-14 04:30N 47°26' W 003°45'2 3.7
2017-Aug-14 04:00N 47°27' W 003°42'4 8.7
2017-Aug-14 03:30N 47°31' W 003°39'5 9.2
2017-Aug-14 03:00N 47°35' W 003°36'4 9.2
2017-Aug-14 02:31N 47°39' W 003°33'4 8.6
2017-Aug-14 02:01N 47°40' W 003°27'4 8.8
2017-Aug-14 01:31N 47°43' W 003°22'1 0.0
2017-Aug-11 23:47N 47°44' W 003°22'2 6.7
2017-Aug-11 23:30N 47°42' W 003°22'4 8.4
2017-Aug-11 23:00N 47°38' W 003°22'4 7.2
2017-Aug-11 22:30N 47°34' W 003°24'4 8.1
2017-Aug-11 22:00N 47°33' W 003°30'15 3.7
2017-Aug-11 17:52N 47°29' W 003°52'1 0.5
2017-Aug-11 16:25N 47°29' W 003°51'2 1.8
2017-Aug-11 15:21N 47°30' W 003°53'4 3.1
2017-Aug-11 14:00N 47°29' W 003°48'7 0.7
2017-Aug-11 04:01N 47°22' W 003°51'0 3.7
2017-Aug-11 04:00N 47°22' W 003°51'1 2.5
2017-Aug-11 03:24N 47°21' W 003°49'3 3.4
2017-Aug-11 02:24N 47°19' W 003°45'2 3.0
2017-Aug-11 01:53N 47°18' W 003°45'16 0.7
2017-Aug-10 03:12N 47°34' W 003°44'2 8.7
2017-Aug-10 02:59N 47°35' W 003°42'5 8.8
2017-Aug-10 02:28N 47°38' W 003°37'4 8.6
2017-Aug-10 02:00N 47°40' W 003°32'4 8.4
2017-Aug-10 01:30N 47°41' W 003°25'4 7.6
2017-Aug-10 01:00N 47°44' W 003°22'0 0.2
2017-Aug-10 00:30N 47°44' W 003°22'3 5.7
2017-Aug-10 00:00N 47°41' W 003°22'5 9.1
2017-Aug-09 23:30N 47°36' W 003°23'4 8.4
2017-Aug-09 23:00N 47°34' W 003°27'4 8.9
2017-Aug-09 22:30N 47°31' W 003°33'4 8.6
2017-Aug-09 22:00N 47°29' W 003°38'  
Track history (hours):
 
Tides and Currents Weather Stations Pressure Air Temp Water Temp Dewpoint Dewpoint Depression Visibility Wind Speed Wind Dir Waves Ship Positions

F/V Pasiphae 2

Last reported at 2017-Aug-18 10:29 UTC. Time now 2017-Aug-18 10:38 UTC.
Position N 47°25' W 003°46'.

Length 14 m.

Type: Fishing. MMSI: 228224800.

Date/timePositionNaut miles runAvg speedWind from/ knotsBaromVisibWave heightAir tempDewpointWater temp
2017-Aug-18 10:29N 47°25' W 003°46'2 3.2
2017-Aug-18 09:53N 47°25' W 003°43'1 3.7
2017-Aug-18 09:30N 47°26' W 003°45'2 3.7
2017-Aug-18 08:58N 47°25' W 003°48'2 3.1
2017-Aug-18 08:26N 47°25' W 003°45'2 3.8
2017-Aug-18 07:59N 47°26' W 003°43'3 3.1
2017-Aug-18 06:57N 47°29' W 003°41'1 3.4
2017-Aug-18 06:30N 47°31' W 003°41'2 3.2
2017-Aug-18 06:00N 47°29' W 003°41'2 3.7
2017-Aug-18 05:30N 47°28' W 003°39'2 3.6
2017-Aug-18 05:00N 47°28' W 003°36'2 4.0
2017-Aug-18 04:30N 47°30' W 003°35'2 3.1
2017-Aug-18 04:00N 47°31' W 003°37'2 3.8
2017-Aug-18 03:30N 47°31' W 003°40'2 3.1
2017-Aug-18 03:00N 47°30' W 003°41'2 3.7
2017-Aug-18 02:30N 47°28' W 003°39'2 3.9
2017-Aug-18 02:00N 47°28' W 003°36'2 3.9
2017-Aug-18 01:30N 47°29' W 003°33'4 7.7
2017-Aug-18 01:00N 47°32' W 003°29'4 8.8
2017-Aug-18 00:30N 47°35' W 003°24'4 8.5
2017-Aug-18 00:00N 47°39' W 003°22'4 8.8
2017-Aug-17 23:30N 47°43' W 003°22'1 1.2
2017-Aug-17 23:00N 47°44' W 003°22'0 0.3
2017-Aug-17 22:30N 47°44' W 003°22'0 0.0
2017-Aug-17 22:00N 47°44' W 003°22'4 7.1
2017-Aug-17 21:30N 47°40' W 003°22'5 9.4
2017-Aug-17 21:00N 47°35' W 003°23'5 9.2
2017-Aug-17 20:30N 47°31' W 003°25'4 8.9
2017-Aug-17 20:00N 47°27' W 003°27'10 0.8
2017-Aug-17 07:11N 47°17' W 003°26'0 2.8
2017-Aug-17 07:01N 47°17' W 003°27'1 2.3
2017-Aug-17 06:30N 47°16' W 003°25'1 3.0
2017-Aug-17 06:00N 47°17' W 003°26'1 2.6
2017-Aug-17 05:26N 47°16' W 003°25'4 2.9
2017-Aug-17 04:13N 47°18' W 003°30'1 3.8
2017-Aug-17 04:00N 47°17' W 003°30'2 3.5
2017-Aug-17 03:29N 47°16' W 003°28'1 2.8
2017-Aug-17 02:58N 47°15' W 003°27'2 3.3
2017-Aug-17 02:18N 47°17' W 003°25'1 2.5
2017-Aug-17 01:59N 47°17' W 003°26'2 3.8
2017-Aug-17 01:23N 47°17' W 003°30'2 4.0
2017-Aug-17 00:57N 47°16' W 003°32'11 0.6
2017-Aug-16 06:12N 47°26' W 003°40'1 2.8
2017-Aug-16 06:00N 47°26' W 003°39'2 3.8
2017-Aug-16 05:30N 47°28' W 003°37'2 3.8
2017-Aug-16 05:00N 47°29' W 003°36'2 4.0
2017-Aug-16 04:30N 47°31' W 003°35'2 3.6
2017-Aug-16 04:00N 47°32' W 003°38'2 3.8
2017-Aug-16 03:30N 47°31' W 003°41'2 3.3
2017-Aug-16 03:00N 47°29' W 003°40'2 4.0
2017-Aug-16 02:30N 47°29' W 003°37'2 3.9
2017-Aug-16 02:00N 47°29' W 003°34'3 6.3
2017-Aug-16 01:30N 47°31' W 003°31'5 9.2
2017-Aug-16 01:00N 47°34' W 003°25'4 8.8
2017-Aug-16 00:30N 47°38' W 003°23'5 9.2
2017-Aug-16 00:00N 47°42' W 003°22'1 3.0
2017-Aug-15 23:30N 47°44' W 003°22'2 4.0
2017-Aug-15 23:00N 47°42' W 003°22'4 8.5
2017-Aug-15 22:30N 47°38' W 003°23'4 7.4
2017-Aug-15 22:00N 47°34' W 003°25'4 7.8
2017-Aug-15 21:30N 47°32' W 003°29'4 7.4
2017-Aug-15 21:00N 47°29' W 003°34'2 3.1
2017-Aug-15 20:30N 47°29' W 003°36'2 3.9
2017-Aug-15 20:00N 47°27' W 003°38'2 3.8
2017-Aug-15 19:30N 47°26' W 003°40'2 3.5
2017-Aug-15 19:00N 47°25' W 003°41'2 3.9
2017-Aug-15 18:30N 47°25' W 003°44'2 4.0
2017-Aug-15 18:00N 47°25' W 003°47'2 4.1
2017-Aug-15 17:30N 47°25' W 003°50'2 4.2
2017-Aug-15 17:00N 47°24' W 003°53'2 3.5
2017-Aug-15 16:29N 47°23' W 003°55'1 3.1
2017-Aug-15 16:00N 47°22' W 003°54'2 3.9
2017-Aug-15 15:30N 47°22' W 003°52'2 4.0
2017-Aug-15 15:00N 47°22' W 003°49'1 2.2
2017-Aug-15 14:30N 47°21' W 003°49'2 2.4
2017-Aug-15 13:46N 47°22' W 003°51'1 3.9
2017-Aug-15 13:29N 47°22' W 003°49'27 3.2
2017-Aug-15 05:06N 47°14' W 003°11'1 4.1
2017-Aug-15 04:54N 47°14' W 003°12'2 5.1
2017-Aug-15 04:29N 47°14' W 003°15'6 8.9
2017-Aug-15 03:49N 47°17' W 003°23'23 1.7
2017-Aug-14 14:43N 47°25' W 003°55'0 1.9
2017-Aug-14 14:30N 47°25' W 003°54'2 3.7
2017-Aug-14 14:00N 47°24' W 003°52'2 3.8
2017-Aug-14 13:30N 47°24' W 003°55'2 3.1
2017-Aug-14 12:45N 47°26' W 003°55'3 3.3
2017-Aug-14 11:47N 47°25' W 003°51'1 4.0
2017-Aug-14 11:30N 47°24' W 003°52'2 5.0
2017-Aug-14 11:00N 47°22' W 003°53'4 2.9
2017-Aug-14 09:33N 47°26' W 003°55'0 4.3
2017-Aug-14 09:30N 47°26' W 003°55'2 3.8
2017-Aug-14 09:00N 47°24' W 003°54'3 2.6
2017-Aug-14 07:40N 47°21' W 003°52'3 2.4
2017-Aug-14 06:38N 47°22' W 003°48'0 4.0
2017-Aug-14 06:30N 47°22' W 003°49'2 3.2
2017-Aug-14 05:49N 47°24' W 003°51'1 3.8
2017-Aug-14 05:27N 47°25' W 003°50'2 3.8
2017-Aug-14 04:56N 47°26' W 003°47'2 3.9
2017-Aug-14 04:30N 47°26' W 003°45'2 3.7
2017-Aug-14 04:00N 47°27' W 003°42'4 8.7
2017-Aug-14 03:30N 47°31' W 003°39'5 9.2
2017-Aug-14 03:00N 47°35' W 003°36'4 9.2
2017-Aug-14 02:31N 47°39' W 003°33'4 8.6
2017-Aug-14 02:01N 47°40' W 003°27'4 8.8
2017-Aug-14 01:31N 47°43' W 003°22'1 0.0
2017-Aug-11 23:47N 47°44' W 003°22'2 6.7
2017-Aug-11 23:30N 47°42' W 003°22'4 8.4
2017-Aug-11 23:00N 47°38' W 003°22'4 7.2
2017-Aug-11 22:30N 47°34' W 003°24'4 8.1
2017-Aug-11 22:00N 47°33' W 003°30'15 3.7
2017-Aug-11 17:52N 47°29' W 003°52'1 0.5
2017-Aug-11 16:25N 47°29' W 003°51'2 1.8
2017-Aug-11 15:21N 47°30' W 003°53'4 3.1
2017-Aug-11 14:00N 47°29' W 003°48'7 0.7
2017-Aug-11 04:01N 47°22' W 003°51'0 3.7
2017-Aug-11 04:00N 47°22' W 003°51'1 2.5
2017-Aug-11 03:24N 47°21' W 003°49'3 3.4
2017-Aug-11 02:24N 47°19' W 003°45'2 3.0
2017-Aug-11 01:53N 47°18' W 003°45'16 0.7
2017-Aug-10 03:12N 47°34' W 003°44'2 8.7
2017-Aug-10 02:59N 47°35' W 003°42'5 8.8
2017-Aug-10 02:28N 47°38' W 003°37'4 8.6
2017-Aug-10 02:00N 47°40' W 003°32'4 8.4
2017-Aug-10 01:30N 47°41' W 003°25'4 7.6
2017-Aug-10 01:00N 47°44' W 003°22'0 0.2
2017-Aug-10 00:30N 47°44' W 003°22'3 5.7
2017-Aug-10 00:00N 47°41' W 003°22'5 9.1
2017-Aug-09 23:30N 47°36' W 003°23'4 8.4
2017-Aug-09 23:00N 47°34' W 003°27'4 8.9
2017-Aug-09 22:30N 47°31' W 003°33'4 8.6
2017-Aug-09 22:00N 47°29' W 003°38'  

Dump ship's entire track history